createdAt,value
2018-10-03T00:00:00.708Z,10.90
2018-10-03T00:02:29.164Z,10.90
2018-10-03T00:04:57.712Z,10.90
2018-10-03T00:07:26.226Z,10.90
2018-10-03T00:09:54.686Z,10.90
2018-10-03T00:12:23.178Z,10.80
2018-10-03T00:14:51.705Z,10.80
2018-10-03T00:17:20.751Z,10.80
2018-10-03T00:19:49.226Z,10.80
2018-10-03T00:22:17.699Z,10.80
2018-10-03T00:24:46.177Z,10.70
2018-10-03T00:27:14.629Z,10.70
2018-10-03T00:29:43.118Z,10.70
2018-10-03T00:32:11.687Z,10.70
2018-10-03T00:34:40.164Z,10.70
2018-10-03T00:37:08.654Z,10.80
2018-10-03T00:39:37.147Z,10.80
2018-10-03T00:42:05.674Z,10.80
2018-10-03T00:44:34.201Z,10.80
2018-10-03T00:47:02.791Z,10.80
2018-10-03T00:49:31.258Z,10.80
2018-10-03T00:51:59.839Z,10.70
2018-10-03T00:54:28.282Z,10.70
2018-10-03T00:56:56.726Z,10.70
2018-10-03T00:59:25.137Z,10.70
2018-10-03T01:01:53.656Z,10.70
2018-10-03T01:04:22.103Z,10.80
2018-10-03T01:06:50.627Z,10.80
2018-10-03T01:09:19.059Z,10.80
2018-10-03T01:11:47.547Z,10.80
2018-10-03T01:14:16.008Z,10.90
2018-10-03T01:16:44.512Z,10.90
2018-10-03T01:19:12.990Z,10.90
2018-10-03T01:21:41.431Z,10.90
2018-10-03T01:24:09.884Z,10.90
2018-10-03T01:26:38.404Z,10.90
2018-10-03T01:29:06.885Z,10.90
2018-10-03T01:31:35.351Z,10.90
2018-10-03T01:34:03.799Z,10.90
2018-10-03T01:36:32.316Z,10.90
2018-10-03T01:39:00.745Z,10.90
2018-10-03T01:41:29.265Z,10.90
2018-10-03T01:43:57.763Z,10.90
2018-10-03T01:46:26.341Z,10.90
2018-10-03T01:48:54.818Z,10.80
2018-10-03T01:51:23.330Z,10.80
2018-10-03T01:53:51.793Z,10.80
2018-10-03T01:56:20.314Z,10.70
2018-10-03T01:58:48.776Z,10.70
2018-10-03T02:01:17.243Z,10.70
2018-10-03T02:03:45.759Z,10.70
2018-10-03T02:06:14.243Z,10.60
2018-10-03T02:08:42.701Z,10.60
2018-10-03T02:11:11.189Z,10.60
2018-10-03T10:42:44.830Z,17.60
2018-10-03T10:45:13.291Z,17.50
2018-10-03T10:47:42.028Z,17.50
2018-10-03T10:50:10.610Z,17.40
2018-10-03T10:52:39.153Z,17.10
2018-10-03T10:55:07.630Z,16.70
2018-10-03T10:57:36.167Z,16.40
2018-10-03T11:00:04.872Z,16.10
2018-10-03T11:02:33.361Z,15.60
2018-10-03T11:05:01.809Z,15.40
2018-10-03T11:32:12.535Z,14.90
2018-10-03T11:34:40.931Z,14.80
2018-10-03T11:37:09.544Z,14.60
2018-10-03T11:39:38.073Z,14.50
2018-10-03T11:42:06.654Z,14.60
2018-10-03T11:44:35.241Z,14.90
2018-10-03T11:47:03.756Z,15.20
2018-10-03T11:49:32.273Z,15.50
2018-10-03T11:52:00.833Z,15.70
2018-10-03T11:54:29.417Z,15.90
2018-10-03T11:56:57.931Z,15.90
2018-10-03T11:59:26.489Z,15.90
2018-10-03T12:01:55.015Z,15.90
2018-10-03T12:04:23.588Z,16.00
2018-10-03T12:06:52.211Z,16.00
2018-10-03T12:09:20.742Z,16.00
2018-10-03T12:24:10.608Z,15.90
2018-10-03T12:26:39.176Z,15.80
2018-10-03T12:29:07.729Z,15.70
2018-10-03T12:31:36.255Z,15.70
2018-10-03T12:34:04.827Z,15.70
2018-10-03T12:36:33.492Z,15.80
2018-10-03T12:41:30.197Z,16.50
2018-10-03T12:43:58.723Z,16.50
2018-10-03T12:46:27.193Z,16.60
2018-10-03T12:48:55.744Z,16.60
2018-10-03T12:51:24.269Z,16.60
2018-10-03T12:53:52.754Z,16.50
2018-10-03T12:56:21.268Z,16.60
2018-10-03T12:58:50.003Z,16.70
2018-10-03T13:01:18.625Z,16.70
2018-10-03T13:03:48.052Z,16.80
2018-10-03T13:06:16.597Z,16.90
2018-10-03T13:08:45.326Z,16.90
2018-10-03T13:11:13.881Z,16.80
2018-10-03T13:13:42.445Z,16.60
2018-10-03T13:16:11.253Z,16.50
2018-10-03T13:18:39.822Z,16.30
2018-10-03T13:21:08.407Z,16.20
2018-10-03T13:23:36.998Z,16.00
2018-10-03T13:26:05.514Z,15.80
2018-10-03T13:28:34.092Z,15.70
2018-10-03T13:31:02.707Z,15.70
2018-10-03T13:33:31.196Z,15.60
2018-10-03T13:35:59.724Z,15.60
2018-10-03T13:38:28.291Z,15.70
2018-10-03T13:40:56.849Z,15.80
2018-10-03T13:43:25.316Z,15.90
2018-10-03T13:45:53.835Z,15.80
2018-10-03T13:48:22.379Z,15.70
2018-10-03T13:50:50.890Z,15.70
2018-10-03T13:53:19.414Z,15.60
2018-10-03T13:55:47.942Z,15.60
2018-10-03T13:58:16.399Z,15.60
2018-10-03T14:00:44.946Z,15.50
2018-10-03T14:03:13.551Z,15.50
2018-10-03T14:05:42.217Z,15.40
2018-10-03T14:08:10.812Z,15.30
2018-10-03T14:10:39.286Z,15.20
2018-10-03T14:13:08.118Z,15.20
2018-10-03T14:15:36.622Z,15.10
2018-10-03T14:18:05.249Z,15.20
2018-10-03T14:20:33.817Z,15.10
2018-10-03T14:23:02.469Z,15.10
2018-10-03T14:25:31.229Z,15.00
2018-10-03T14:28:00.165Z,14.90
2018-10-03T14:30:28.901Z,14.80
2018-10-03T14:32:57.970Z,14.80
2018-10-03T14:35:26.756Z,14.70
2018-10-03T14:37:55.387Z,14.70
2018-10-03T14:40:24.277Z,14.70
2018-10-03T14:42:53.207Z,14.70
2018-10-03T14:45:22.416Z,14.70
2018-10-03T14:47:51.519Z,14.70
2018-10-03T14:50:20.643Z,14.70
2018-10-03T14:52:49.680Z,14.80
2018-10-03T14:55:18.598Z,14.90
2018-10-03T14:57:47.962Z,14.90
2018-10-03T15:00:16.943Z,14.90
2018-10-03T15:02:45.867Z,14.90
2018-10-03T15:05:14.650Z,14.90
2018-10-03T15:07:43.562Z,15.00
2018-10-03T15:10:12.059Z,15.00
2018-10-03T15:12:40.846Z,14.90
2018-10-03T15:15:09.514Z,14.80
2018-10-03T15:17:38.036Z,14.80
2018-10-03T15:20:06.718Z,14.80
2018-10-03T15:22:35.251Z,14.80
2018-10-03T15:25:03.819Z,14.70
2018-10-03T15:27:32.396Z,14.60
2018-10-03T15:30:01.107Z,14.50
2018-10-03T15:32:29.546Z,14.50
2018-10-03T15:34:58.163Z,14.50
2018-10-03T15:37:26.766Z,14.40
2018-10-03T15:39:55.314Z,14.40
2018-10-03T15:42:23.830Z,14.30
2018-10-03T15:44:52.285Z,14.30
2018-10-03T15:47:20.823Z,14.30
2018-10-03T15:49:49.433Z,14.20
2018-10-03T15:52:18.009Z,14.20
2018-10-03T15:54:46.525Z,14.20
2018-10-03T15:57:15.044Z,14.20
2018-10-03T15:59:43.529Z,14.10
2018-10-03T16:02:12.067Z,14.10
2018-10-03T16:04:40.624Z,14.00
2018-10-03T16:07:09.175Z,13.90
2018-10-03T16:09:37.695Z,13.90
2018-10-03T16:12:06.740Z,13.80
2018-10-03T16:14:35.552Z,13.70
2018-10-03T16:17:04.154Z,13.60
2018-10-03T16:19:32.678Z,13.60
2018-10-03T16:22:01.412Z,13.50
2018-10-03T16:24:29.987Z,13.40
2018-10-03T16:26:58.456Z,13.40
2018-10-03T16:29:27.394Z,13.30
2018-10-03T16:31:55.960Z,13.30
2018-10-03T16:36:54.961Z,13.10
2018-10-03T16:39:23.529Z,13.00
2018-10-03T16:41:52.158Z,12.90
2018-10-03T16:44:20.745Z,12.80
2018-10-03T16:46:49.199Z,12.70
2018-10-03T16:49:17.692Z,12.60
2018-10-03T16:51:46.229Z,12.50
2018-10-03T16:54:14.787Z,12.40
2018-10-03T16:56:43.356Z,12.30
2018-10-03T16:59:11.877Z,12.20
2018-10-03T17:01:40.415Z,12.20
2018-10-03T17:04:08.891Z,12.10
2018-10-03T17:06:37.435Z,12.10
2018-10-03T17:09:06.992Z,12.00
2018-10-03T17:11:35.965Z,12.00
2018-10-03T17:14:26.026Z,12.00
2018-10-03T17:16:55.248Z,12.00
2018-10-03T17:21:52.713Z,12.00
2018-10-03T17:24:22.536Z,12.10
2018-10-03T17:26:51.146Z,12.20
2018-10-03T17:29:20.868Z,12.20
2018-10-03T17:31:49.433Z,12.20
2018-10-03T17:34:18.638Z,12.30
2018-10-03T17:36:48.463Z,12.30
2018-10-03T17:39:17.993Z,12.20
2018-10-03T17:41:46.961Z,12.20
2018-10-03T17:44:16.636Z,12.10
2018-10-03T17:46:46.054Z,12.10
2018-10-03T17:49:14.724Z,12.10
2018-10-03T17:51:43.480Z,12.10
2018-10-03T17:54:12.067Z,12.10
2018-10-03T18:01:41.488Z,11.90
2018-10-03T19:55:30.020Z,10.80
